createdAt,value
2022-08-14T00:02:03.248Z,7.65
2022-08-14T00:04:42.460Z,7.68
2022-08-14T00:07:13.911Z,6.88
2022-08-14T00:10:01.184Z,7.72
2022-08-14T00:12:37.804Z,7.97
2022-08-14T00:15:16.498Z,7.93
2022-08-14T00:17:48.111Z,7.38
2022-08-14T00:20:41.243Z,8.10
2022-08-14T00:23:16.458Z,8.35
2022-08-14T00:25:58.651Z,8.68
2022-08-14T00:28:35.610Z,8.02
2022-08-14T00:31:05.227Z,7.55
2022-08-14T00:33:50.989Z,7.93
2022-08-14T00:36:36.033Z,7.28
2022-08-14T00:39:09.647Z,7.50
2022-08-14T00:41:39.173Z,7.63
2022-08-14T00:44:07.213Z,7.88
2022-08-14T00:46:36.384Z,7.95
2022-08-14T00:49:05.094Z,7.70
2022-08-14T00:51:36.786Z,7.45
2022-08-14T00:54:20.851Z,7.47
2022-08-14T00:56:55.152Z,8.13
2022-08-14T00:59:25.253Z,7.22
2022-08-14T01:01:58.211Z,7.65
2022-08-14T01:04:51.215Z,8.50
2022-08-14T01:07:21.044Z,8.30
2022-08-14T01:09:54.691Z,7.88
2022-08-14T01:12:26.855Z,7.88
2022-08-14T01:15:02.223Z,8.18
2022-08-14T01:17:55.024Z,10.00
2022-08-14T01:20:41.285Z,8.10
2022-08-14T01:23:18.768Z,8.52
2022-08-14T01:25:52.287Z,8.35
2022-08-14T01:28:47.379Z,8.43
2022-08-14T01:31:17.178Z,8.25
2022-08-14T01:35:16.449Z,8.07
2022-08-14T01:36:39.328Z,8.45
2022-08-14T01:39:16.168Z,8.38
2022-08-14T01:44:31.191Z,8.00
2022-08-14T01:47:21.860Z,8.25
2022-08-14T01:50:01.435Z,8.40
2022-08-14T01:52:59.087Z,8.45
2022-08-14T01:55:20.863Z,8.20
2022-08-14T01:58:00.818Z,7.95
2022-08-14T02:00:38.961Z,8.40
2022-08-14T02:03:07.303Z,8.05
2022-08-14T02:05:38.522Z,8.20
2022-08-14T02:08:09.341Z,8.25
2022-08-14T02:10:46.723Z,8.43
2022-08-14T02:13:16.632Z,7.78
2022-08-14T02:15:45.589Z,8.52
2022-08-14T02:18:15.520Z,8.55
2022-08-14T02:20:42.802Z,8.52
2022-08-14T02:23:09.863Z,7.50
2022-08-14T02:25:39.513Z,8.25
2022-08-14T02:28:24.682Z,8.32
2022-08-14T02:30:54.598Z,8.88
2022-08-14T02:33:22.769Z,8.43
2022-08-14T02:35:53.473Z,8.82
2022-08-14T02:38:30.243Z,8.43
2022-08-14T02:40:58.669Z,8.82
2022-08-14T02:43:37.030Z,9.05
2022-08-14T02:46:09.808Z,9.10
2022-08-14T02:49:03.797Z,8.60
2022-08-14T02:51:30.387Z,7.75
2022-08-14T02:53:58.513Z,7.53
2022-08-14T02:56:29.479Z,8.27
2022-08-14T02:59:17.239Z,8.13
2022-08-14T03:01:50.476Z,8.07
2022-08-14T03:04:20.561Z,7.90
2022-08-14T03:06:57.318Z,7.72
2022-08-14T03:09:41.917Z,8.23
2022-08-14T03:12:12.907Z,7.90
2022-08-14T03:14:49.323Z,9.15
2022-08-14T03:17:16.327Z,8.25
2022-08-14T03:19:44.592Z,7.65
2022-08-14T03:22:17.708Z,8.27
2022-08-14T03:24:45.007Z,7.65
2022-08-14T03:27:14.147Z,8.05
2022-08-14T03:29:41.111Z,8.18
2022-08-14T03:32:08.476Z,7.28
2022-08-14T03:34:48.248Z,8.07
2022-08-14T03:40:12.403Z,7.50
2022-08-14T03:42:45.497Z,6.90
2022-08-14T03:45:26.231Z,7.72
2022-08-14T03:48:01.898Z,7.45
2022-08-14T03:50:31.574Z,7.65
2022-08-14T03:53:03.055Z,7.55
2022-08-14T03:55:30.935Z,7.78
2022-08-14T03:58:00.488Z,7.80
2022-08-14T04:00:42.621Z,7.63
2022-08-14T04:03:13.273Z,8.02
2022-08-14T04:05:48.739Z,7.68
2022-08-14T04:08:29.354Z,8.18
2022-08-14T04:11:02.049Z,7.68
2022-08-14T04:13:33.958Z,7.93
2022-08-14T04:16:12.300Z,7.85
2022-08-14T04:18:46.395Z,8.15
2022-08-14T04:21:16.233Z,8.93
2022-08-14T04:23:44.558Z,7.63
2022-08-14T04:26:14.910Z,8.80
2022-08-14T04:29:07.676Z,8.23
2022-08-14T04:33:02.022Z,8.68
2022-08-14T04:37:21.963Z,8.05
2022-08-14T04:40:10.827Z,8.50
2022-08-14T04:42:56.452Z,8.40
2022-08-14T04:45:25.371Z,8.13
2022-08-14T04:48:39.667Z,7.85
2022-08-14T04:51:04.457Z,8.13
2022-08-14T04:53:34.707Z,8.63
2022-08-14T04:56:03.985Z,8.63
2022-08-14T04:58:37.982Z,8.63
2022-08-14T05:01:12.778Z,9.40
2022-08-14T05:03:46.705Z,9.45
2022-08-14T05:06:37.306Z,9.35
2022-08-14T05:09:01.263Z,9.05
2022-08-14T05:11:30.532Z,9.73
2022-08-14T05:14:34.362Z,8.82
2022-08-14T05:16:46.832Z,10.00
2022-08-14T05:19:17.739Z,8.95
2022-08-14T05:21:58.100Z,10.15
2022-08-14T05:24:28.190Z,9.73
2022-08-14T05:26:55.495Z,10.13
2022-08-14T05:29:22.539Z,10.23
2022-08-14T05:31:55.854Z,9.98
2022-08-14T05:34:31.670Z,10.38
2022-08-14T05:37:03.406Z,10.63
2022-08-14T05:39:31.691Z,10.07
2022-08-14T05:42:00.709Z,11.18
2022-08-14T05:44:30.700Z,11.52
2022-08-14T05:46:58.842Z,12.65
2022-08-14T05:49:33.128Z,11.48
2022-08-14T05:52:02.508Z,10.52
2022-08-14T05:54:35.671Z,10.10
2022-08-14T05:57:04.935Z,10.65
2022-08-14T05:59:38.657Z,10.68
2022-08-14T06:02:10.812Z,10.90
2022-08-14T06:04:39.281Z,11.13
2022-08-14T06:07:07.044Z,10.32
2022-08-14T06:09:36.025Z,10.90
2022-08-14T06:12:09.275Z,11.40
2022-08-14T06:14:37.301Z,10.27
2022-08-14T06:17:06.404Z,11.25
2022-08-14T06:19:33.436Z,11.68
2022-08-14T06:22:00.352Z,11.20
2022-08-14T06:24:30.740Z,10.70
2022-08-14T06:27:04.641Z,11.13
2022-08-14T06:29:35.228Z,10.75
2022-08-14T06:32:36.593Z,10.65
2022-08-14T06:35:03.458Z,10.60
2022-08-14T06:40:25.568Z,10.45
2022-08-14T06:43:00.459Z,10.77
2022-08-14T06:45:31.817Z,10.13
2022-08-14T06:48:00.978Z,10.32
2022-08-14T06:50:30.240Z,10.07
2022-08-14T06:52:58.731Z,10.45
2022-08-14T06:55:28.130Z,10.43
2022-08-14T06:57:57.939Z,11.48
2022-08-14T07:00:30.816Z,11.85
2022-08-14T07:03:17.762Z,12.30
2022-08-14T07:05:54.956Z,12.80
2022-08-14T07:08:31.841Z,12.57
2022-08-14T07:11:01.472Z,11.63
2022-08-14T07:13:30.622Z,11.88
2022-08-14T07:16:00.711Z,13.18
2022-08-14T07:18:34.944Z,13.95
2022-08-14T07:21:04.633Z,12.27
2022-08-14T07:23:33.061Z,12.98
2022-08-14T07:26:02.301Z,12.93
2022-08-14T07:28:42.159Z,13.23
2022-08-14T07:31:12.786Z,13.10
2022-08-14T07:33:51.648Z,12.60
2022-08-14T07:36:27.274Z,13.13
2022-08-14T07:38:59.193Z,12.18
2022-08-14T07:41:33.702Z,12.25
2022-08-14T07:44:28.831Z,11.52
2022-08-14T07:46:50.423Z,11.95
2022-08-14T07:49:18.922Z,11.40
2022-08-14T07:51:49.631Z,11.63
2022-08-14T07:54:23.472Z,11.93
2022-08-14T07:57:00.885Z,11.75
2022-08-14T07:59:40.864Z,11.73
2022-08-14T08:02:18.979Z,10.53
2022-08-14T08:04:54.114Z,11.40
2022-08-14T08:07:29.423Z,12.75
2022-08-14T08:09:59.562Z,13.18
2022-08-14T08:12:30.890Z,11.63
2022-08-14T08:15:08.081Z,10.82
2022-08-14T08:17:39.106Z,10.60
2022-08-14T08:20:27.707Z,12.75
2022-08-14T08:23:00.484Z,13.15
2022-08-14T08:25:39.616Z,12.50
2022-08-14T08:28:08.989Z,13.20
2022-08-14T08:30:56.358Z,13.25
2022-08-14T08:33:32.164Z,12.82
2022-08-14T08:36:12.797Z,12.45
2022-08-14T08:39:18.269Z,11.00
2022-08-14T08:41:50.538Z,10.95
2022-08-14T08:44:32.105Z,12.15
2022-08-14T08:47:06.570Z,11.90
2022-08-14T08:49:52.808Z,12.68
2022-08-14T08:52:31.214Z,12.25
2022-08-14T08:55:01.109Z,12.05
2022-08-14T08:57:36.968Z,11.30
2022-08-14T09:00:29.475Z,10.98
2022-08-14T09:03:04.581Z,11.07
2022-08-14T09:05:34.346Z,11.02
2022-08-14T09:08:30.357Z,10.25
2022-08-14T09:11:00.914Z,10.30
2022-08-14T09:13:27.933Z,10.35
2022-08-14T09:15:58.119Z,10.02
2022-08-14T09:18:27.301Z,10.18
2022-08-14T09:20:58.818Z,10.88
2022-08-14T09:23:27.406Z,10.63
2022-08-14T09:28:32.282Z,10.82
2022-08-14T09:31:07.263Z,10.65
2022-08-14T09:34:26.859Z,10.05
2022-08-14T09:37:03.738Z,9.57
2022-08-14T09:39:43.149Z,10.00
2022-08-14T09:42:50.078Z,9.23
2022-08-14T10:16:43.251Z,6.40
2022-08-14T10:19:15.956Z,8.27
2022-08-14T10:21:58.712Z,5.50
2022-08-14T10:27:23.398Z,5.30
2022-08-14T10:29:55.834Z,5.97
2022-08-14T10:32:29.054Z,5.82
2022-08-14T10:35:14.187Z,4.70
2022-08-14T10:37:50.162Z,4.53
2022-08-14T10:40:43.404Z,4.65
2022-08-14T10:43:23.068Z,5.15
2022-08-14T10:46:04.170Z,6.00
2022-08-14T10:49:04.090Z,7.50
2022-08-14T10:51:36.090Z,4.03
2022-08-14T10:54:25.922Z,4.10
2022-08-14T10:57:22.173Z,3.00
2022-08-14T10:59:54.651Z,3.10
2022-08-14T11:02:50.132Z,2.88
2022-08-14T11:05:18.717Z,2.60
2022-08-14T11:07:55.321Z,3.90
2022-08-14T11:10:27.860Z,3.58
2022-08-14T11:12:57.854Z,4.28
2022-08-14T11:15:29.363Z,4.78
2022-08-14T11:18:01.295Z,4.00
2022-08-14T11:20:30.159Z,5.18
2022-08-14T11:23:00.859Z,4.15
2022-08-14T11:25:43.930Z,4.13
2022-08-14T11:28:48.117Z,4.43
2022-08-14T11:31:14.134Z,4.32
2022-08-14T11:33:41.869Z,4.15
2022-08-14T11:36:17.318Z,4.35
2022-08-14T11:38:46.716Z,5.75
2022-08-14T11:41:17.076Z,4.88
2022-08-14T11:43:57.716Z,5.10
2022-08-14T11:46:30.574Z,4.72
2022-08-14T11:49:06.571Z,5.72
2022-08-14T11:51:47.474Z,7.65
2022-08-14T11:54:34.037Z,7.70
2022-08-14T11:57:04.712Z,6.78
2022-08-14T11:59:33.964Z,6.50
2022-08-14T12:03:01.885Z,7.28
2022-08-14T12:05:04.510Z,7.93
2022-08-14T12:07:36.932Z,8.02
2022-08-14T12:10:27.351Z,7.88
2022-08-14T12:13:22.508Z,7.85
2022-08-14T12:16:11.054Z,8.00
2022-08-14T12:18:49.793Z,8.40
2022-08-14T12:21:19.933Z,8.50
2022-08-14T12:23:50.386Z,8.70
2022-08-14T12:26:38.847Z,8.80
2022-08-14T12:29:13.064Z,9.05
2022-08-14T12:31:47.464Z,8.38
2022-08-14T12:34:24.118Z,8.93
2022-08-14T12:37:04.191Z,9.07
2022-08-14T12:39:40.273Z,8.70
2022-08-14T12:42:08.277Z,9.10
2022-08-14T12:44:43.031Z,10.02
2022-08-14T12:47:16.840Z,9.02
2022-08-14T12:49:58.326Z,9.43
2022-08-14T12:52:35.973Z,8.48
2022-08-14T12:55:18.717Z,9.10
2022-08-14T12:57:49.251Z,8.98
2022-08-14T13:00:23.008Z,9.40
2022-08-14T13:02:55.226Z,9.70
2022-08-14T13:05:30.102Z,9.50
2022-08-14T13:07:59.268Z,8.82
2022-08-14T13:10:51.305Z,8.65
2022-08-14T13:13:17.924Z,8.70
2022-08-14T13:15:55.958Z,8.77
2022-08-14T13:18:26.868Z,8.82
2022-08-14T13:20:57.825Z,7.85
2022-08-14T13:23:33.058Z,6.28
2022-08-14T13:26:03.737Z,7.00
2022-08-14T13:28:34.547Z,7.13
2022-08-14T13:31:11.323Z,7.63
2022-08-14T13:33:40.689Z,8.30
2022-08-14T13:36:08.857Z,8.00
2022-08-14T13:38:36.038Z,8.07
2022-08-14T13:41:04.086Z,8.00
2022-08-14T13:43:36.778Z,8.63
2022-08-14T13:46:19.480Z,6.18
2022-08-14T13:48:47.566Z,6.68
2022-08-14T13:51:17.669Z,6.03
2022-08-14T13:54:07.116Z,6.03
2022-08-14T13:56:40.230Z,5.60
2022-08-14T13:59:08.059Z,6.07
2022-08-14T14:01:42.685Z,6.40
2022-08-14T14:04:19.094Z,5.80
2022-08-14T14:06:49.156Z,6.20
2022-08-14T14:09:21.964Z,6.38
2022-08-14T14:11:52.993Z,5.63
2022-08-14T14:14:29.730Z,5.90
2022-08-14T14:17:15.163Z,6.00
2022-08-14T14:19:47.866Z,5.40
2022-08-14T14:23:01.827Z,6.15
2022-08-14T14:25:06.149Z,5.80
2022-08-14T14:27:40.943Z,5.85
2022-08-14T14:30:15.109Z,5.85
2022-08-14T14:33:04.432Z,5.78
2022-08-14T14:35:38.423Z,5.45
2022-08-14T14:38:08.899Z,5.78
2022-08-14T14:40:52.781Z,5.20
2022-08-14T14:43:26.431Z,5.35
2022-08-14T14:45:55.697Z,5.82
2022-08-14T14:48:27.084Z,5.57
2022-08-14T14:50:59.491Z,5.25
2022-08-14T14:53:27.427Z,5.95
2022-08-14T14:56:47.948Z,5.30
2022-08-14T14:58:46.333Z,6.32
2022-08-14T15:01:18.486Z,5.18
2022-08-14T15:03:45.653Z,5.35
2022-08-14T15:06:13.140Z,5.85
2022-08-14T15:08:56.907Z,6.13
2022-08-14T15:11:30.260Z,6.25
2022-08-14T15:13:58.191Z,5.35
2022-08-14T15:16:27.968Z,5.75
2022-08-14T15:18:55.186Z,5.40
2022-08-14T15:21:22.910Z,5.60
2022-08-14T15:23:50.674Z,6.10
2022-08-14T15:26:23.842Z,6.05
2022-08-14T15:29:03.280Z,5.40
2022-08-14T15:31:36.027Z,5.38
2022-08-14T15:34:42.976Z,4.95
2022-08-14T15:39:33.978Z,5.10
2022-08-14T15:42:15.020Z,4.60
2022-08-14T15:44:56.771Z,4.95
2022-08-14T15:47:27.959Z,4.78
2022-08-14T15:49:59.674Z,4.53
2022-08-14T15:52:32.974Z,5.53
2022-08-14T15:55:12.954Z,4.65
2022-08-14T15:58:02.050Z,4.60
2022-08-14T16:00:49.475Z,4.47
2022-08-14T16:03:27.463Z,4.43
2022-08-14T16:06:05.689Z,4.97
2022-08-14T16:08:33.375Z,4.75
2022-08-14T16:11:07.046Z,4.07
2022-08-14T16:13:42.964Z,4.18
2022-08-14T16:16:47.629Z,4.10
2022-08-14T16:19:10.908Z,4.10
2022-08-14T16:22:01.845Z,4.82
2022-08-14T16:24:33.413Z,4.40
2022-08-14T16:27:01.609Z,4.72
2022-08-14T16:29:31.334Z,4.55
2022-08-14T16:32:01.757Z,4.20
2022-08-14T16:34:50.080Z,4.72
2022-08-14T16:37:21.898Z,4.63
2022-08-14T16:39:50.413Z,5.20
2022-08-14T16:43:02.419Z,4.90
2022-08-14T16:45:11.912Z,4.72
2022-08-14T16:47:40.485Z,4.53
2022-08-14T16:50:11.748Z,4.40
2022-08-14T16:52:54.499Z,4.97
2022-08-14T16:55:22.541Z,4.82
2022-08-14T16:57:59.079Z,4.07
2022-08-14T17:00:52.287Z,4.15
2022-08-14T17:03:19.359Z,4.32
2022-08-14T17:05:48.719Z,4.65
2022-08-14T17:08:32.282Z,4.40
2022-08-14T17:11:10.948Z,4.30
2022-08-14T17:13:59.122Z,3.95
2022-08-14T17:16:35.724Z,4.45
2022-08-14T17:19:05.548Z,4.20
2022-08-14T17:21:41.544Z,4.47
2022-08-14T17:24:58.364Z,4.18
2022-08-14T17:27:04.095Z,4.20
2022-08-14T17:29:44.484Z,4.57
2022-08-14T17:35:16.563Z,4.32
2022-08-14T17:37:46.474Z,4.40
2022-08-14T17:40:16.893Z,4.10
2022-08-14T17:42:51.183Z,3.85
2022-08-14T17:45:42.965Z,3.92
2022-08-14T17:49:16.056Z,4.35
2022-08-14T17:51:24.196Z,3.90
2022-08-14T17:54:02.341Z,4.32
2022-08-14T17:56:31.797Z,3.58
2022-08-14T17:59:03.938Z,4.35
2022-08-14T18:01:37.819Z,3.53
2022-08-14T18:04:24.538Z,3.72
2022-08-14T18:07:16.661Z,4.25
2022-08-14T18:09:56.677Z,3.90
2022-08-14T18:12:36.987Z,3.85
2022-08-14T18:15:16.455Z,3.90
2022-08-14T18:17:52.754Z,3.30
2022-08-14T18:21:41.926Z,3.40
2022-08-14T18:23:12.842Z,3.63
2022-08-14T18:25:47.405Z,3.63
2022-08-14T18:28:18.226Z,3.53
2022-08-14T18:31:22.809Z,3.70
2022-08-14T18:33:55.921Z,3.85
2022-08-14T18:36:55.389Z,3.75
2022-08-14T18:39:31.692Z,3.60
2022-08-14T18:42:23.417Z,3.92
2022-08-14T18:44:50.998Z,3.90
2022-08-14T18:47:22.200Z,4.00
2022-08-14T18:50:31.058Z,3.75
2022-08-14T18:53:07.853Z,3.72
2022-08-14T18:55:36.094Z,3.88
2022-08-14T18:58:26.490Z,3.38
2022-08-14T19:00:56.253Z,3.33
2022-08-14T19:03:36.846Z,4.00
2022-08-14T19:06:07.699Z,3.78
2022-08-14T19:08:43.335Z,3.90
2022-08-14T19:11:34.367Z,4.10
2022-08-14T19:14:05.040Z,4.30
2022-08-14T19:16:42.915Z,3.97
2022-08-14T19:19:11.974Z,3.97
2022-08-14T19:21:43.715Z,3.95
2022-08-14T19:24:30.388Z,3.58
2022-08-14T19:27:19.309Z,3.53
2022-08-14T19:29:51.254Z,3.53
2022-08-14T19:32:39.376Z,4.07
2022-08-14T19:35:55.554Z,3.70
2022-08-14T19:38:52.140Z,4.15
2022-08-14T19:41:40.826Z,3.80
2022-08-14T19:44:20.144Z,3.55
2022-08-14T19:47:04.861Z,3.20
2022-08-14T19:50:30.154Z,3.22
2022-08-14T19:52:35.300Z,3.47
2022-08-14T19:55:20.366Z,3.78
2022-08-14T19:57:52.411Z,3.95
2022-08-14T20:00:29.553Z,3.72
2022-08-14T20:03:10.175Z,3.90
2022-08-14T20:05:45.438Z,4.15
2022-08-14T20:09:06.017Z,3.83
2022-08-14T20:11:18.858Z,4.03
2022-08-14T20:14:10.335Z,4.10
2022-08-14T20:16:43.436Z,3.17
2022-08-14T20:19:14.040Z,4.03
2022-08-14T20:22:35.305Z,4.28
2022-08-14T20:24:54.135Z,3.90
2022-08-14T20:27:34.035Z,4.18
2022-08-14T20:30:33.528Z,3.97
2022-08-14T20:33:08.058Z,4.10
2022-08-14T20:35:49.620Z,4.20
2022-08-14T20:38:30.838Z,3.58
2022-08-14T20:41:08.595Z,4.45
2022-08-14T20:43:59.421Z,4.90
2022-08-14T20:46:38.826Z,4.55
2022-08-14T20:49:18.555Z,4.15
2022-08-14T20:51:58.580Z,4.00
2022-08-14T20:54:34.324Z,4.32
2022-08-14T20:59:53.013Z,4.82
2022-08-14T21:02:34.636Z,4.53
2022-08-14T21:05:16.214Z,3.80
2022-08-14T21:07:50.223Z,4.80
2022-08-14T21:10:36.246Z,4.70
2022-08-14T21:13:25.583Z,4.75
2022-08-14T21:15:56.605Z,4.28
2022-08-14T21:18:34.677Z,4.50
2022-08-14T21:21:07.620Z,4.53
2022-08-14T21:23:55.331Z,4.57
2022-08-14T21:26:51.330Z,4.43
2022-08-14T21:29:14.533Z,4.22
2022-08-14T21:31:43.072Z,5.18
2022-08-14T21:34:27.212Z,5.32
2022-08-14T21:37:07.785Z,4.80
2022-08-14T21:39:36.494Z,5.15
2022-08-14T21:42:06.020Z,5.10
2022-08-14T21:44:43.074Z,5.07
2022-08-14T21:47:13.453Z,5.07
2022-08-14T21:49:46.126Z,4.35
2022-08-14T21:52:51.180Z,4.85
2022-08-14T21:55:13.146Z,4.35
2022-08-14T21:58:03.863Z,5.07
2022-08-14T22:00:37.440Z,4.35
2022-08-14T22:03:10.139Z,4.70
2022-08-14T22:05:41.985Z,4.20
2022-08-14T22:08:13.996Z,4.38
2022-08-14T22:10:44.864Z,4.97
2022-08-14T22:13:15.882Z,4.60
2022-08-14T22:15:49.318Z,4.38
2022-08-14T22:18:20.334Z,5.00
2022-08-14T22:20:53.651Z,4.22
2022-08-14T22:23:24.919Z,4.50
2022-08-14T22:25:53.690Z,4.18
2022-08-14T22:28:25.630Z,4.97
2022-08-14T22:30:55.306Z,4.80
2022-08-14T22:33:31.111Z,4.55
2022-08-14T22:36:00.595Z,4.60
2022-08-14T22:38:37.235Z,5.28
2022-08-14T22:41:29.046Z,5.00
2022-08-14T22:43:57.269Z,5.10
2022-08-14T22:46:27.120Z,5.63
2022-08-14T22:48:55.302Z,5.07
2022-08-14T22:51:27.633Z,5.25
2022-08-14T22:53:56.286Z,6.43
2022-08-14T22:56:29.495Z,5.85
2022-08-14T22:59:04.395Z,6.63
2022-08-14T23:01:56.788Z,6.57
2022-08-14T23:04:35.930Z,7.00
2022-08-14T23:07:22.234Z,6.60
2022-08-14T23:09:56.931Z,7.05
2022-08-14T23:12:31.879Z,7.25
2022-08-14T23:15:02.324Z,7.57
2022-08-14T23:17:39.348Z,7.68
2022-08-14T23:20:18.958Z,7.53
2022-08-14T23:22:51.743Z,7.43
2022-08-14T23:25:44.542Z,8.02
2022-08-14T23:28:34.705Z,7.75
2022-08-14T23:31:05.790Z,7.97
2022-08-14T23:33:34.392Z,7.65
2022-08-14T23:36:04.780Z,7.65
2022-08-14T23:38:52.926Z,7.65
2022-08-14T23:41:20.877Z,8.15
2022-08-14T23:43:50.588Z,7.40
2022-08-14T23:46:19.609Z,7.53
2022-08-14T23:48:47.256Z,6.93
2022-08-14T23:51:16.241Z,7.45
2022-08-14T23:53:47.755Z,7.78
2022-08-14T23:56:29.579Z,7.28
2022-08-14T23:59:00.585Z,6.05
